createdAt,value
2018-12-15T00:00:58.962Z,99120.60
2018-12-15T00:03:09.805Z,99115.92
2018-12-15T00:05:20.649Z,99118.91
2018-12-15T00:07:31.528Z,99120.61
2018-12-15T00:09:42.375Z,99115.50
2018-12-15T00:11:53.245Z,99110.41
2018-12-15T00:14:04.125Z,99110.00
2018-12-15T00:16:14.965Z,99109.98
2018-12-15T00:18:25.820Z,99105.30
2018-12-15T00:20:36.656Z,99109.11
2018-12-15T00:22:47.545Z,99112.94
2018-12-15T00:24:58.393Z,99117.64
2018-12-15T00:27:09.315Z,99118.47
2018-12-15T00:29:20.174Z,99119.36
2018-12-15T00:31:31.020Z,99116.81
2018-12-15T00:33:41.864Z,99119.34
2018-12-15T00:35:52.709Z,99121.46
2018-12-15T00:38:03.584Z,99121.05
2018-12-15T00:40:15.236Z,99117.63
2018-12-15T00:42:31.999Z,99116.78
2018-12-15T00:44:42.857Z,99116.34
2018-12-15T00:46:54.741Z,99124.42
2018-12-15T00:49:05.630Z,99120.62
2018-12-15T00:51:16.442Z,99120.63
2018-12-15T00:53:27.277Z,99118.05
2018-12-15T00:55:38.156Z,99124.85
2018-12-15T00:57:49.002Z,99124.85
2018-12-15T01:00:00.833Z,99131.25
2018-12-15T01:02:11.663Z,99129.55
2018-12-15T01:04:22.526Z,99126.99
2018-12-15T01:06:33.393Z,99140.18
2018-12-15T01:08:44.237Z,99138.89
2018-12-15T01:10:55.099Z,99146.14
2018-12-15T01:13:05.994Z,99146.97
2018-12-15T01:15:19.088Z,99146.97
2018-12-15T01:17:29.921Z,99149.09
2018-12-15T01:19:40.786Z,99154.22
2018-12-15T01:21:51.717Z,99154.22
2018-12-15T01:24:02.703Z,99160.60
2018-12-15T01:26:13.553Z,99161.02
2018-12-15T01:28:24.384Z,99164.41
2018-12-15T01:30:35.286Z,99161.81
2018-12-15T01:32:46.193Z,99163.11
2018-12-15T01:34:57.288Z,99163.97
2018-12-15T01:37:08.117Z,99159.71
2018-12-15T01:39:19.751Z,99166.11
2018-12-15T01:41:30.696Z,99159.72
2018-12-15T01:43:41.524Z,99167.81
2018-12-15T01:45:52.416Z,99163.55
2018-12-15T01:48:03.277Z,99167.77
2018-12-15T01:50:14.137Z,99165.67
2018-12-15T01:52:25.939Z,99163.10
2018-12-15T01:54:36.782Z,99160.53
2018-12-15T01:56:47.629Z,99164.34
2018-12-15T01:58:58.528Z,99164.37
2018-12-15T02:01:09.382Z,99166.08
2018-12-15T02:03:20.220Z,99164.78
2018-12-15T02:05:31.060Z,99161.39
2018-12-15T02:07:41.908Z,99158.44
2018-12-15T02:09:52.749Z,99161.84
2018-12-15T02:12:03.593Z,99169.95
2018-12-15T02:14:14.408Z,99170.81
2018-12-15T02:16:25.240Z,99172.50
2018-12-15T02:18:36.120Z,99171.20
2018-12-15T02:20:46.941Z,99172.92
2018-12-15T02:22:57.767Z,99178.05
2018-12-15T02:25:08.589Z,99180.59
2018-12-15T02:27:19.451Z,99181.91
2018-12-15T02:29:30.280Z,99181.03
2018-12-15T02:31:41.135Z,99185.30
2018-12-15T02:33:51.956Z,99184.86
2018-12-15T02:36:02.806Z,99180.58
2018-12-15T02:38:13.609Z,99180.58
2018-12-15T02:40:24.442Z,99177.59
2018-12-15T02:42:35.279Z,99180.98
2018-12-15T02:44:46.158Z,99181.00
2018-12-15T02:46:57.000Z,99181.84
2018-12-15T02:49:07.814Z,99178.40
2018-12-15T02:51:18.644Z,99175.44
2018-12-15T02:53:29.485Z,99179.67
2018-12-15T02:55:40.290Z,99177.56
2018-12-15T02:57:51.162Z,99183.13
2018-12-15T03:00:02.834Z,99182.70
2018-12-15T03:02:13.676Z,99182.27
2018-12-15T03:04:24.492Z,99178.43
2018-12-15T03:06:35.294Z,99183.13
2018-12-15T03:08:46.172Z,99185.64
2018-12-15T03:10:57.040Z,99188.22
2018-12-15T03:13:07.853Z,99185.67
2018-12-15T03:15:18.812Z,99186.96
2018-12-15T03:17:29.635Z,99194.22
2018-12-15T03:19:40.538Z,99195.48
2018-12-15T03:21:51.441Z,99200.14
2018-12-15T03:24:02.268Z,99198.88
2018-12-15T03:26:13.105Z,99207.81
2018-12-15T03:28:23.957Z,99207.41
2018-12-15T03:30:34.903Z,99207.45
2018-12-15T03:32:45.845Z,99210.42
2018-12-15T03:34:56.790Z,99207.87
2018-12-15T03:37:07.607Z,99210.41
2018-12-15T03:39:18.455Z,99203.19
2018-12-15T03:41:29.388Z,99211.23
2018-12-15T03:43:40.256Z,99207.82
2018-12-15T03:45:51.101Z,99207.41
2018-12-15T03:48:02.156Z,99213.80
2018-12-15T03:50:13.112Z,99207.84
2018-12-15T03:52:23.938Z,99204.84
2018-12-15T03:54:34.811Z,99208.27
2018-12-15T03:56:45.673Z,99211.66
2018-12-15T03:58:56.546Z,99208.70
2018-12-15T04:01:07.497Z,99216.77
2018-12-15T04:03:18.345Z,99209.95
2018-12-15T04:05:29.203Z,99219.34
2018-12-15T04:07:40.137Z,99216.35
2018-12-15T04:09:50.949Z,99218.03
2018-12-15T04:12:01.792Z,99222.73
2018-12-15T04:14:12.613Z,99220.19
2018-12-15T04:16:23.441Z,99220.21
2018-12-15T04:18:34.324Z,99222.34
2018-12-15T04:20:45.178Z,99221.91
2018-12-15T04:22:56.022Z,99232.55
2018-12-15T04:25:07.009Z,99227.45
2018-12-15T04:27:17.854Z,99230.00
2018-12-15T04:29:28.805Z,99230.00
2018-12-15T04:31:39.650Z,99234.70
2018-12-15T04:33:50.472Z,99238.09
2018-12-15T04:36:10.276Z,99237.66
2018-12-15T04:38:21.196Z,99230.86
2018-12-15T04:40:32.250Z,99232.98
2018-12-15T04:42:43.083Z,99234.67
2018-12-15T04:44:53.950Z,99233.00
2018-12-15T04:47:05.109Z,99235.11
2018-12-15T04:49:16.126Z,99222.78
2018-12-15T04:51:27.012Z,99224.06
2018-12-15T04:53:37.958Z,99229.13
2018-12-15T04:55:48.769Z,99225.73
2018-12-15T04:57:59.586Z,99227.01
2018-12-15T05:00:10.413Z,99224.42
2018-12-15T05:02:21.346Z,99223.17
2018-12-15T05:04:32.230Z,99228.31
2018-12-15T05:06:43.065Z,99221.92
2018-12-15T05:08:53.949Z,99223.20
2018-12-15T05:11:04.792Z,99221.94
2018-12-15T05:13:15.621Z,99219.38
2018-12-15T05:15:26.468Z,99221.91
2018-12-15T05:17:37.281Z,99227.03
2018-12-15T05:19:48.228Z,99222.77
2018-12-15T05:21:59.068Z,99220.19
2018-12-15T05:24:09.927Z,99220.63
2018-12-15T05:26:20.785Z,99222.30
2018-12-15T05:28:31.639Z,99217.22
2018-12-15T05:30:42.483Z,99218.49
2018-12-15T05:32:53.405Z,99216.36
2018-12-15T05:35:04.261Z,99216.75
2018-12-15T05:37:15.087Z,99217.61
2018-12-15T05:39:25.932Z,99213.35
2018-12-15T05:41:36.752Z,99208.70
2018-12-15T05:43:47.610Z,99213.38
2018-12-15T05:45:58.412Z,99207.00
2018-12-15T05:48:09.244Z,99211.27
2018-12-15T05:50:20.239Z,99207.00
2018-12-15T05:52:31.068Z,99209.55
2018-12-15T05:54:41.908Z,99208.27
2018-12-15T05:56:52.713Z,99212.52
2018-12-15T05:59:03.566Z,99216.77
2018-12-15T06:01:14.424Z,99209.55
2018-12-15T06:03:25.256Z,99213.36
2018-12-15T06:05:36.240Z,99210.83
2018-12-15T06:07:47.184Z,99213.36
2018-12-15T06:09:58.056Z,99216.77
2018-12-15T06:12:08.906Z,99214.64
2018-12-15T06:14:19.866Z,99216.80
2018-12-15T06:16:30.700Z,99216.81
2018-12-15T06:18:41.533Z,99214.70
2018-12-15T06:20:52.372Z,99221.51
2018-12-15T06:23:03.188Z,99223.61
2018-12-15T06:25:14.037Z,99224.89
2018-12-15T06:27:24.878Z,99222.78
2018-12-15T06:29:35.693Z,99222.78
2018-12-15T06:31:46.644Z,99221.08
2018-12-15T06:33:57.452Z,99225.75
2018-12-15T06:36:08.313Z,99229.14
2018-12-15T06:38:19.168Z,99223.19
2018-12-15T06:40:30.039Z,99216.39
2018-12-15T06:42:40.926Z,99219.36
2018-12-15T06:44:51.766Z,99221.49
2018-12-15T06:47:02.647Z,99220.64
2018-12-15T06:49:13.571Z,99222.77
2018-12-15T06:51:24.432Z,99222.77
2018-12-15T06:53:35.253Z,99225.77
2018-12-15T06:55:46.106Z,99222.77
2018-12-15T06:57:56.952Z,99219.37
2018-12-15T07:00:08.097Z,99234.28
2018-12-15T07:02:18.944Z,99233.40
2018-12-15T07:04:29.772Z,99238.50
2018-12-15T07:06:42.055Z,99236.83
2018-12-15T07:08:53.076Z,99237.66
2018-12-15T07:11:03.917Z,99241.50
2018-12-15T07:13:14.789Z,99238.52
2018-12-15T07:15:25.644Z,99238.94
2018-12-15T07:17:37.356Z,99240.22
2018-12-15T07:19:48.440Z,99235.12
2018-12-15T07:21:59.316Z,99238.52
2018-12-15T07:24:10.182Z,99225.70
2018-12-15T07:26:21.008Z,99232.13
2018-12-15T07:28:31.857Z,99229.13
2018-12-15T07:30:42.702Z,99238.09
2018-12-15T07:32:53.624Z,99232.97
2018-12-15T07:35:04.596Z,99239.37
2018-12-15T07:37:15.449Z,99242.36
2018-12-15T07:39:26.476Z,99241.95
2018-12-15T07:41:37.305Z,99238.98
2018-12-15T07:43:48.164Z,99247.03
2018-12-15T07:45:59.003Z,99244.50
2018-12-15T07:48:09.820Z,99245.73
2018-12-15T07:50:20.745Z,99251.73
2018-12-15T07:52:31.620Z,99245.27
2018-12-15T07:54:42.529Z,99242.16
2018-12-15T07:56:53.396Z,99237.25
2018-12-15T07:59:04.365Z,99241.03
2018-12-15T08:01:15.225Z,99235.82
2018-12-15T08:03:26.093Z,99247.19
2018-12-15T08:05:37.093Z,99246.91
2018-12-15T08:07:47.938Z,99244.13
2018-12-15T08:10:00.879Z,99250.60
2018-12-15T08:12:17.988Z,99249.38
2018-12-15T08:14:28.852Z,99256.67
2018-12-15T08:16:39.735Z,99257.13
2018-12-15T08:18:50.570Z,99256.28
2018-12-15T08:21:01.436Z,99258.44
2018-12-15T08:23:12.263Z,99255.45
2018-12-15T08:25:23.156Z,99257.16
2018-12-15T08:27:34.063Z,99258.00
2018-12-15T08:29:45.065Z,99255.89
2018-12-15T08:31:55.964Z,99253.31
2018-12-15T08:34:06.821Z,99254.61
2018-12-15T08:36:17.765Z,99253.34
2018-12-15T08:38:28.640Z,99257.60
2018-12-15T08:40:39.516Z,99251.22
2018-12-15T08:42:50.374Z,99257.18
2018-12-15T08:45:01.230Z,99262.73
2018-12-15T08:47:12.110Z,99261.02
2018-12-15T08:49:23.016Z,99265.73
2018-12-15T08:51:33.993Z,99264.44
2018-12-15T08:53:44.947Z,99264.43
2018-12-15T08:55:55.913Z,99273.38
2018-12-15T08:58:06.793Z,99262.29
2018-12-15T09:00:17.628Z,99264.84
2018-12-15T09:02:28.568Z,99266.98
2018-12-15T09:04:39.422Z,99270.81
2018-12-15T09:06:50.313Z,99266.12
2018-12-15T09:09:01.173Z,99269.52
2018-12-15T09:11:12.341Z,99266.53
2018-12-15T09:13:23.209Z,99265.24
2018-12-15T09:15:34.052Z,99268.22
2018-12-15T09:17:44.925Z,99269.08
2018-12-15T09:19:55.791Z,99265.72
2018-12-15T09:22:11.593Z,99258.02
2018-12-15T09:24:19.935Z,99259.70
2018-12-15T09:26:30.760Z,99263.56
2018-12-15T09:28:41.644Z,99259.30
2018-12-15T09:30:52.592Z,99264.41
2018-12-15T09:33:03.449Z,99259.73
2018-12-15T09:35:14.303Z,99251.60
2018-12-15T09:37:25.184Z,99249.05
2018-12-15T09:39:36.096Z,99257.55
2018-12-15T09:41:46.959Z,99257.55
2018-12-15T09:43:57.832Z,99262.25
2018-12-15T09:46:08.785Z,99259.28
2018-12-15T09:48:19.628Z,99263.11
2018-12-15T09:50:30.497Z,99260.13
2018-12-15T09:52:41.452Z,99256.26
2018-12-15T09:54:52.298Z,99260.11
2018-12-15T09:57:04.081Z,99251.98
2018-12-15T09:59:14.954Z,99250.31
2018-12-15T10:01:25.862Z,99244.36
2018-12-15T10:03:36.769Z,99249.89
2018-12-15T10:05:47.630Z,99249.45
2018-12-15T10:07:58.523Z,99248.18
2018-12-15T10:10:09.561Z,99237.97
2018-12-15T10:12:20.395Z,99249.08
2018-12-15T10:14:31.273Z,99240.55
2018-12-15T10:16:42.219Z,99241.83
2018-12-15T10:18:53.104Z,99233.31
2018-12-15T10:21:03.992Z,99230.30
2018-12-15T10:23:14.844Z,99231.14
2018-12-15T10:25:25.730Z,99230.30
2018-12-15T10:27:36.568Z,99227.33
2018-12-15T10:29:53.598Z,99228.16
2018-12-15T10:32:10.657Z,99222.59
2018-12-15T10:34:21.538Z,99222.20
2018-12-15T10:36:32.392Z,99217.94
2018-12-15T10:38:43.273Z,99220.09
2018-12-15T10:40:54.115Z,99212.81
2018-12-15T10:43:04.957Z,99210.69
2018-12-15T10:45:15.876Z,99201.30
2018-12-15T10:47:26.707Z,99204.28
2018-12-15T10:49:37.602Z,99211.51
2018-12-15T10:51:48.477Z,99213.21
2018-12-15T10:53:59.338Z,99206.41
2018-12-15T10:56:10.203Z,99212.41
2018-12-15T10:58:21.046Z,99212.84
2018-12-15T11:00:37.951Z,99206.86
2018-12-15T11:02:48.876Z,99206.42
2018-12-15T11:04:59.761Z,99205.54
2018-12-15T11:07:10.640Z,99208.06
2018-12-15T11:09:21.538Z,99207.22
2018-12-15T11:11:32.413Z,99211.48
2018-12-15T11:13:43.288Z,99208.11
2018-12-15T11:15:54.119Z,99208.57
2018-12-15T11:18:04.989Z,99204.72
2018-12-15T11:20:15.849Z,99200.02
2018-12-15T11:22:26.722Z,99198.30
2018-12-15T11:24:37.576Z,99189.74
2018-12-15T11:26:48.432Z,99197.00
2018-12-15T11:28:59.262Z,99188.93
2018-12-15T11:31:10.128Z,99192.36
2018-12-15T11:33:21.016Z,99185.93
2018-12-15T11:35:31.852Z,99181.65
2018-12-15T11:37:42.705Z,99179.06
2018-12-15T11:39:55.158Z,99177.34
2018-12-15T11:42:06.277Z,99175.67
2018-12-15T11:44:17.193Z,99179.91
2018-12-15T11:46:28.021Z,99174.38
2018-12-15T11:48:38.874Z,99170.54
2018-12-15T11:50:49.764Z,99160.74
2018-12-15T11:53:00.641Z,99164.99
2018-12-15T11:55:11.504Z,99161.97
2018-12-15T11:57:22.348Z,99155.63
2018-12-15T11:59:33.201Z,99153.09
2018-12-15T12:01:44.051Z,99150.94
2018-12-15T12:03:54.986Z,99147.55
2018-12-15T12:06:05.849Z,99143.30
2018-12-15T12:08:16.759Z,99145.00
2018-12-15T12:10:27.622Z,99139.02
2018-12-15T12:12:38.464Z,99136.04
2018-12-15T12:14:49.329Z,99134.31
2018-12-15T12:17:00.189Z,99135.61
2018-12-15T12:19:11.045Z,99140.31
2018-12-15T12:21:21.941Z,99143.70
2018-12-15T12:23:32.797Z,99148.79
2018-12-15T12:25:43.679Z,99143.69
2018-12-15T12:27:54.547Z,99137.73
2018-12-15T12:30:05.753Z,99138.59
2018-12-15T12:32:16.688Z,99141.16
2018-12-15T12:34:27.532Z,99141.16
2018-12-15T12:36:38.395Z,99141.19
2018-12-15T12:38:49.241Z,99141.60
2018-12-15T12:41:00.119Z,99137.74
2018-12-15T12:43:10.968Z,99145.04
2018-12-15T12:45:21.904Z,99136.05
2018-12-15T12:47:32.776Z,99135.20
2018-12-15T12:49:43.751Z,99129.66
2018-12-15T12:51:54.616Z,99128.42
2018-12-15T12:54:05.525Z,99125.37
2018-12-15T12:56:16.384Z,99131.77
2018-12-15T12:58:27.264Z,99128.36
2018-12-15T13:00:38.236Z,99128.75
2018-12-15T13:02:49.059Z,99127.52
2018-12-15T13:04:59.951Z,99128.77
2018-12-15T13:07:10.856Z,99127.48
2018-12-15T13:09:21.700Z,99124.11
2018-12-15T13:11:32.656Z,99122.41
2018-12-15T13:13:43.497Z,99123.69
2018-12-15T13:15:54.361Z,99124.09
2018-12-15T13:18:05.367Z,99129.64
2018-12-15T13:20:16.212Z,99129.59
2018-12-15T13:22:27.191Z,99125.75
2018-12-15T13:24:38.064Z,99117.30
2018-12-15T13:26:48.905Z,99112.97
2018-12-15T13:28:59.901Z,99113.86
2018-12-15T13:31:10.791Z,99111.35
2018-12-15T13:33:32.549Z,99110.91
2018-12-15T13:35:43.556Z,99116.45
2018-12-15T13:37:54.425Z,99120.33
2018-12-15T13:40:05.717Z,99119.02
2018-12-15T13:42:16.596Z,99112.58
2018-12-15T13:44:28.432Z,99115.58
2018-12-15T13:46:39.438Z,99115.68
2018-12-15T13:48:50.357Z,99115.25
2018-12-15T13:51:01.260Z,99120.37
2018-12-15T13:53:12.184Z,99116.09
2018-12-15T13:55:23.107Z,99119.92
2018-12-15T13:57:33.997Z,99119.86
2018-12-15T13:59:44.865Z,99121.91
2018-12-15T14:01:55.742Z,99115.95
2018-12-15T14:04:06.652Z,99117.25
2018-12-15T14:06:17.533Z,99116.85
2018-12-15T14:08:28.430Z,99120.30
2018-12-15T14:10:39.285Z,99124.59
2018-12-15T14:12:50.160Z,99116.94
2018-12-15T14:15:01.153Z,99119.09
2018-12-15T14:17:12.122Z,99111.38
2018-12-15T14:19:23.048Z,99111.39
2018-12-15T14:21:33.909Z,99110.53
2018-12-15T14:23:44.760Z,99110.09
2018-12-15T14:25:55.629Z,99116.47
2018-12-15T14:28:06.499Z,99107.92
2018-12-15T14:30:17.338Z,99107.89
2018-12-15T14:32:28.348Z,99101.91
2018-12-15T14:34:39.209Z,99106.64
2018-12-15T14:36:50.099Z,99109.20
2018-12-15T14:39:00.946Z,99110.92
2018-12-15T14:41:11.844Z,99111.14
2018-12-15T14:43:22.739Z,99116.09
2018-12-15T14:45:33.628Z,99101.18
2018-12-15T14:47:44.566Z,99108.52
2018-12-15T14:49:55.409Z,99106.55
2018-12-15T14:52:06.278Z,99107.48
2018-12-15T14:54:17.117Z,99112.59
2018-12-15T14:56:28.128Z,99113.03
2018-12-15T14:58:39.094Z,99107.05
2018-12-15T15:00:50.045Z,99112.58
2018-12-15T15:03:00.916Z,99116.05
2018-12-15T15:05:11.785Z,99107.53
2018-12-15T15:07:22.701Z,99110.91
2018-12-15T15:09:33.544Z,99105.77
2018-12-15T15:11:44.403Z,99102.77
2018-12-15T15:13:55.393Z,99102.36
2018-12-15T15:16:06.233Z,99099.39
2018-12-15T15:18:17.140Z,99104.89
2018-12-15T15:20:29.932Z,99099.80
2018-12-15T15:22:40.893Z,99098.15
2018-12-15T15:24:51.739Z,99098.56
2018-12-15T15:27:02.726Z,99104.98
2018-12-15T15:29:13.677Z,99092.17
2018-12-15T15:31:24.529Z,99091.67
2018-12-15T15:33:35.393Z,99089.44
2018-12-15T15:35:46.249Z,99080.95
2018-12-15T15:37:57.111Z,99075.86
2018-12-15T15:40:08.101Z,99078.30
2018-12-15T15:42:18.942Z,99071.01
2018-12-15T15:44:29.832Z,99069.81
2018-12-15T15:46:40.702Z,99073.84
2018-12-15T15:48:51.598Z,99071.99
2018-12-15T15:51:02.517Z,99072.58
2018-12-15T15:53:13.393Z,99072.23
2018-12-15T15:55:24.385Z,99064.24
2018-12-15T15:57:35.377Z,99061.78
2018-12-15T15:59:46.236Z,99059.67
2018-12-15T16:01:57.084Z,99062.69
2018-12-15T16:04:07.965Z,99057.19
2018-12-15T16:06:18.812Z,99056.88
2018-12-15T16:08:29.674Z,99054.13
2018-12-15T16:10:40.568Z,99051.31
2018-12-15T16:12:51.510Z,99054.79
2018-12-15T16:15:03.614Z,99053.58
2018-12-15T16:17:14.474Z,99051.84
2018-12-15T16:19:25.376Z,99058.26
2018-12-15T16:21:36.256Z,99054.92
2018-12-15T16:23:47.153Z,99048.94
2018-12-15T16:25:58.032Z,99050.33
2018-12-15T16:28:09.029Z,99050.36
2018-12-15T16:30:19.930Z,99050.37
2018-12-15T16:32:30.774Z,99041.01
2018-12-15T16:34:41.731Z,99033.77
2018-12-15T16:36:52.625Z,99039.77
2018-12-15T16:39:05.561Z,99035.93
2018-12-15T16:41:16.459Z,99025.27
2018-12-15T16:43:27.342Z,99025.66
2018-12-15T16:45:38.240Z,99026.19
2018-12-15T16:47:49.106Z,99028.77
2018-12-15T16:49:59.986Z,99024.07
2018-12-15T16:52:10.976Z,99023.64
2018-12-15T16:54:21.828Z,99020.24
2018-12-15T16:56:32.724Z,99018.34
2018-12-15T16:58:43.574Z,99018.39
2018-12-15T17:00:54.470Z,99018.86
2018-12-15T17:03:05.328Z,99019.66
2018-12-15T17:05:16.213Z,99022.63
2018-12-15T17:07:27.084Z,99025.63
2018-12-15T17:09:37.907Z,99021.86
2018-12-15T17:11:48.819Z,99016.34
2018-12-15T17:13:59.702Z,99018.52
2018-12-15T17:16:10.609Z,99018.09
2018-12-15T17:18:21.497Z,99011.75
2018-12-15T17:20:32.349Z,99015.15
2018-12-15T17:22:43.209Z,99006.28
2018-12-15T17:24:54.062Z,99006.28
2018-12-15T17:27:04.956Z,99006.73
2018-12-15T17:29:15.848Z,99008.02
2018-12-15T17:31:26.830Z,98998.22
2018-12-15T17:33:37.677Z,98998.25
2018-12-15T17:35:48.667Z,98992.24
2018-12-15T17:37:59.559Z,98996.42
2018-12-15T17:40:10.888Z,98997.82
2018-12-15T17:42:21.776Z,98984.22
2018-12-15T17:44:32.667Z,98990.23
2018-12-15T17:46:43.615Z,98988.61
2018-12-15T17:48:54.474Z,98989.84
2018-12-15T17:51:05.363Z,98990.83
2018-12-15T17:53:16.260Z,98988.30
2018-12-15T17:55:27.904Z,98979.76
2018-12-15T17:57:38.789Z,98984.88
2018-12-15T17:59:49.634Z,98979.83
2018-12-15T18:02:00.548Z,98982.80
2018-12-15T18:04:11.430Z,98972.51
2018-12-15T18:06:22.269Z,98977.18
2018-12-15T18:08:33.223Z,98976.31
2018-12-15T18:10:44.088Z,98975.50
2018-12-15T18:12:54.984Z,98975.13
2018-12-15T18:15:06.290Z,98975.56
2018-12-15T18:17:17.278Z,98977.32
2018-12-15T18:19:28.655Z,98967.08
2018-12-15T18:21:39.496Z,98964.97
2018-12-15T18:23:50.357Z,98966.72
2018-12-15T18:26:01.219Z,98955.67
2018-12-15T18:28:12.064Z,98955.70
2018-12-15T18:30:22.927Z,98947.18
2018-12-15T18:32:33.812Z,98945.08
2018-12-15T18:34:44.675Z,98946.36
2018-12-15T18:36:55.517Z,98946.75
2018-12-15T18:39:06.529Z,98939.50
2018-12-15T18:41:17.396Z,98937.38
2018-12-15T18:43:28.271Z,98931.00
2018-12-15T18:45:39.119Z,98928.95
2018-12-15T18:47:49.992Z,98930.66
2018-12-15T18:50:00.912Z,98923.00
2018-12-15T18:52:11.753Z,98913.25
2018-12-15T18:54:22.592Z,98911.09
2018-12-15T18:56:33.685Z,98907.30
2018-12-15T18:58:44.565Z,98906.46
2018-12-15T19:00:55.568Z,98895.85
2018-12-15T19:03:06.405Z,98890.77
2018-12-15T19:05:17.302Z,98880.59
2018-12-15T19:07:28.181Z,98879.34
2018-12-15T19:09:39.030Z,98877.62
2018-12-15T19:11:49.908Z,98880.16
2018-12-15T19:14:00.868Z,98875.91
2018-12-15T19:16:11.719Z,98868.28
2018-12-15T19:18:22.598Z,98870.83
2018-12-15T19:20:33.488Z,98867.42
2018-12-15T19:22:44.353Z,98865.75
2018-12-15T19:24:55.210Z,98864.87
2018-12-15T19:27:06.111Z,98862.80
2018-12-15T19:29:16.997Z,98864.52
2018-12-15T19:31:27.891Z,98864.08
2018-12-15T19:33:38.753Z,98862.81
2018-12-15T19:35:49.614Z,98855.16
2018-12-15T19:38:00.480Z,98849.66
2018-12-15T19:40:11.339Z,98849.63
2018-12-15T19:42:22.216Z,98844.95
2018-12-15T19:44:33.129Z,98843.67
2018-12-15T19:46:44.047Z,98844.95
2018-12-15T19:48:54.887Z,98842.81
2018-12-15T19:51:05.782Z,98840.26
2018-12-15T19:53:16.673Z,98838.59
2018-12-15T19:55:27.519Z,98830.94
2018-12-15T19:57:38.397Z,98826.27
2018-12-15T19:59:49.209Z,98814.80
2018-12-15T20:02:00.073Z,98812.28
2018-12-15T20:04:10.945Z,98808.91
2018-12-15T20:06:21.804Z,98806.37
2018-12-15T20:08:32.712Z,98794.02
2018-12-15T20:10:43.564Z,98789.34
2018-12-15T20:12:54.467Z,98785.93
2018-12-15T20:15:05.459Z,98787.20
2018-12-15T20:17:16.324Z,98787.20
2018-12-15T20:19:27.226Z,98788.92
2018-12-15T20:21:38.150Z,98794.90
2018-12-15T20:23:49.042Z,98788.56
2018-12-15T20:25:59.903Z,98789.84
2018-12-15T20:28:10.821Z,98788.58
2018-12-15T20:30:21.676Z,98780.92
2018-12-15T20:32:32.626Z,98773.25
2018-12-15T20:34:43.603Z,98771.17
2018-12-15T20:36:54.803Z,98769.46
2018-12-15T20:39:06.087Z,98767.75
2018-12-15T20:41:16.979Z,98760.55
2018-12-15T20:43:28.009Z,98756.75
2018-12-15T20:45:38.930Z,98752.91
2018-12-15T20:47:49.824Z,98754.22
2018-12-15T20:50:00.794Z,98755.09
2018-12-15T20:52:11.750Z,98756.76
2018-12-15T20:54:22.613Z,98757.63
2018-12-15T20:56:33.481Z,98742.78
2018-12-15T20:58:44.388Z,98748.33
2018-12-15T21:00:55.268Z,98741.09
2018-12-15T21:03:06.238Z,98750.45
2018-12-15T21:05:17.158Z,98747.05
2018-12-15T21:07:28.050Z,98744.92
2018-12-15T21:09:38.965Z,98739.41
2018-12-15T21:11:49.859Z,98736.02
2018-12-15T21:14:00.736Z,98738.14
2018-12-15T21:16:11.748Z,98736.06
2018-12-15T21:18:22.625Z,98730.55
2018-12-15T21:20:33.520Z,98725.88
2018-12-15T21:22:44.371Z,98724.16
2018-12-15T21:24:55.244Z,98716.11
2018-12-15T21:27:06.205Z,98723.76
2018-12-15T21:29:17.049Z,98718.23
2018-12-15T21:31:27.953Z,98722.91
2018-12-15T21:33:38.856Z,98712.27
2018-12-15T21:35:49.767Z,98709.70
2018-12-15T21:38:00.664Z,98705.90
2018-12-15T21:40:12.560Z,98698.71
2018-12-15T21:42:23.421Z,98701.24
2018-12-15T21:44:34.350Z,98688.09
2018-12-15T21:46:45.228Z,98682.58
2018-12-15T21:48:56.102Z,98673.70
2018-12-15T21:51:06.998Z,98669.89
2018-12-15T21:53:17.958Z,98659.72
2018-12-15T21:55:28.814Z,98658.86
2018-12-15T21:57:39.702Z,98651.23
2018-12-15T21:59:50.556Z,98641.45
2018-12-15T22:02:01.457Z,98645.69
2018-12-15T22:04:12.282Z,98637.20
2018-12-15T22:06:23.121Z,98634.20
2018-12-15T22:08:34.029Z,98631.69
2018-12-15T22:10:44.861Z,98632.57
2018-12-15T22:12:55.727Z,98630.02
2018-12-15T22:15:06.829Z,98628.75
2018-12-15T22:17:17.712Z,98629.61
2018-12-15T22:19:28.619Z,98625.78
2018-12-15T22:21:39.486Z,98625.38
2018-12-15T22:23:50.386Z,98620.25
2018-12-15T22:26:01.232Z,98614.76
2018-12-15T22:28:12.069Z,98617.31
2018-12-15T22:30:22.940Z,98609.64
2018-12-15T22:32:33.910Z,98606.58
2018-12-15T22:34:44.786Z,98605.18
2018-12-15T22:36:55.640Z,98601.36
2018-12-15T22:39:06.513Z,98603.95
2018-12-15T22:41:17.342Z,98602.30
2018-12-15T22:43:28.252Z,98601.44
2018-12-15T22:45:39.126Z,98598.95
2018-12-15T22:47:49.942Z,98592.16
2018-12-15T22:50:00.784Z,98589.18
2018-12-15T22:52:11.689Z,98578.17
2018-12-15T22:54:22.646Z,98573.52
2018-12-15T22:56:33.496Z,98565.44
2018-12-15T22:58:44.342Z,98556.97
2018-12-15T23:01:01.489Z,98554.03
2018-12-15T23:03:12.352Z,98551.48
2018-12-15T23:05:23.228Z,98548.98
2018-12-15T23:07:34.113Z,98536.65
2018-12-15T23:09:44.980Z,98534.10
2018-12-15T23:11:56.050Z,98525.57
2018-12-15T23:14:06.922Z,98515.82
2018-12-15T23:16:17.834Z,98509.85
2018-12-15T23:18:28.781Z,98507.27
2018-12-15T23:20:40.569Z,98501.80
2018-12-15T23:22:51.427Z,98491.63
2018-12-15T23:25:02.535Z,98490.38
2018-12-15T23:27:13.420Z,98492.88
2018-12-15T23:29:24.300Z,98490.36
2018-12-15T23:31:35.178Z,98489.06
2018-12-15T23:33:46.055Z,98488.22
2018-12-15T23:35:56.990Z,98477.59
2018-12-15T23:38:07.826Z,98476.66
2018-12-15T23:40:18.789Z,98462.63
2018-12-15T23:42:29.767Z,98457.55
2018-12-15T23:44:40.640Z,98466.47
2018-12-15T23:46:51.502Z,98459.72
2018-12-15T23:49:02.364Z,98455.86
2018-12-15T23:51:13.189Z,98454.13
2018-12-15T23:53:24.058Z,98451.58
2018-12-15T23:55:34.877Z,98446.53
2018-12-15T23:57:45.728Z,98445.20
2018-12-15T23:59:56.572Z,98442.23
